createdAt,value
2023-02-12T00:01:34.598Z,23.63
2023-02-12T00:04:04.400Z,15.10
2023-02-12T00:06:33.953Z,18.03
2023-02-12T00:09:03.343Z,21.50
2023-02-12T00:11:33.118Z,16.37
2023-02-12T00:14:05.694Z,34.23
2023-02-12T00:16:35.141Z,24.57
2023-02-12T00:19:04.682Z,18.70
2023-02-12T00:21:35.532Z,21.27
2023-02-12T00:24:05.255Z,25.00
2023-02-12T00:26:34.637Z,25.47
2023-02-12T00:29:06.685Z,24.43
2023-02-12T00:31:36.120Z,24.30
2023-02-12T00:34:05.663Z,26.37
2023-02-12T00:36:35.903Z,25.53
2023-02-12T00:39:05.508Z,25.20
2023-02-12T00:41:34.928Z,21.87
2023-02-12T00:44:09.681Z,19.97
2023-02-12T00:46:39.144Z,18.57
2023-02-12T00:49:08.585Z,17.83
2023-02-12T00:51:38.019Z,14.03
2023-02-12T00:54:07.778Z,11.30
2023-02-12T00:56:37.159Z,14.20
2023-02-12T00:59:09.207Z,13.00
2023-02-12T01:01:38.754Z,17.33
2023-02-12T01:04:08.405Z,15.30
2023-02-12T01:06:37.808Z,19.23
2023-02-12T01:09:07.299Z,18.23
2023-02-12T01:11:36.726Z,14.17
2023-02-12T01:14:09.244Z,21.63
2023-02-12T01:16:39.147Z,17.53
2023-02-12T01:19:09.067Z,16.40
2023-02-12T01:21:38.565Z,16.53
2023-02-12T01:24:08.721Z,15.50
2023-02-12T01:26:38.173Z,16.60
2023-02-12T01:29:10.626Z,15.33
2023-02-12T01:31:42.459Z,13.97
2023-02-12T01:34:13.710Z,10.33
2023-02-12T01:36:43.406Z,15.00
2023-02-12T01:39:13.716Z,17.70
2023-02-12T01:41:45.454Z,18.67
2023-02-12T01:44:21.120Z,18.43
2023-02-12T01:46:52.392Z,17.77
2023-02-12T01:49:23.608Z,18.17
2023-02-12T01:51:57.562Z,18.97
2023-02-12T01:54:28.441Z,15.03
2023-02-12T01:56:58.049Z,14.23
2023-02-12T01:59:30.159Z,22.33
2023-02-12T02:01:59.627Z,21.13
2023-02-12T02:04:32.615Z,22.77
2023-02-12T02:07:04.152Z,16.60
2023-02-12T02:09:36.279Z,21.67
2023-02-12T02:12:18.455Z,23.53
2023-02-12T02:14:51.456Z,22.03
2023-02-12T02:17:34.655Z,20.03
2023-02-12T02:20:33.644Z,24.33
2023-02-12T02:23:13.197Z,19.80
2023-02-12T02:25:59.554Z,19.80
2023-02-12T02:28:42.708Z,16.80
2023-02-12T02:31:18.095Z,21.67
2023-02-12T02:33:52.179Z,27.40
2023-02-12T02:36:30.202Z,27.50
2023-02-12T02:39:06.629Z,16.20
2023-02-12T02:41:38.837Z,15.83
2023-02-12T02:44:13.374Z,16.90
2023-02-12T02:46:48.225Z,19.53
2023-02-12T02:49:21.475Z,15.67
2023-02-12T02:51:55.976Z,15.67
2023-02-12T02:54:31.591Z,15.60
2023-02-12T02:57:14.696Z,18.67
2023-02-12T02:59:46.492Z,22.73
2023-02-12T03:02:21.169Z,16.80
2023-02-12T03:04:53.238Z,13.80
2023-02-12T03:07:26.403Z,17.93
2023-02-12T03:09:59.674Z,13.73
2023-02-12T03:12:32.493Z,15.13
2023-02-12T03:15:04.567Z,16.30
2023-02-12T03:17:38.558Z,17.40
2023-02-12T03:20:11.102Z,13.40
2023-02-12T03:22:42.731Z,11.90
2023-02-12T03:25:15.192Z,16.43
2023-02-12T03:27:46.469Z,14.13
2023-02-12T03:30:16.910Z,16.43
2023-02-12T03:32:54.818Z,10.07
2023-02-12T03:35:27.494Z,10.63
2023-02-12T03:38:01.180Z,8.70
2023-02-12T03:40:33.933Z,16.07
2023-02-12T03:43:07.401Z,12.63
2023-02-12T03:45:44.490Z,13.43
2023-02-12T03:48:22.603Z,10.27
2023-02-12T03:50:55.408Z,12.77
2023-02-12T03:53:24.967Z,15.27
2023-02-12T03:55:59.032Z,49.83
2023-02-12T03:58:31.293Z,19.10
2023-02-12T04:01:01.134Z,18.03
2023-02-12T04:03:35.966Z,17.07
2023-02-12T04:06:05.632Z,16.50
2023-02-12T04:08:35.511Z,16.43
2023-02-12T04:11:10.470Z,15.90
2023-02-12T04:13:45.953Z,25.30
2023-02-12T04:16:20.905Z,79.03
2023-02-12T04:18:53.234Z,31.73
2023-02-12T04:21:34.713Z,90.07
2023-02-12T04:24:08.982Z,23.80
2023-02-12T04:26:42.367Z,36.97
2023-02-12T04:29:19.017Z,28.60
2023-02-12T04:31:52.327Z,31.23
2023-02-12T04:34:30.104Z,46.83
2023-02-12T04:37:02.112Z,29.57
2023-02-12T04:39:32.832Z,65.63
2023-02-12T04:42:02.978Z,29.33
2023-02-12T04:44:33.934Z,40.40
2023-02-12T04:47:03.789Z,36.10
2023-02-12T04:49:35.827Z,47.97
2023-02-12T04:52:06.386Z,32.73
2023-02-12T04:54:35.772Z,42.40
2023-02-12T04:57:05.314Z,62.10
2023-02-12T04:59:34.759Z,41.20
2023-02-12T05:02:04.166Z,74.43
2023-02-12T05:04:36.176Z,64.37
2023-02-12T05:07:05.797Z,81.60
2023-02-12T05:09:35.251Z,36.43
2023-02-12T05:12:04.639Z,33.73
2023-02-12T05:14:34.138Z,31.90
2023-02-12T05:17:03.648Z,49.90
2023-02-12T05:19:35.872Z,47.97
2023-02-12T05:22:05.255Z,42.13
2023-02-12T05:24:34.670Z,67.70
2023-02-12T05:27:04.042Z,75.63
2023-02-12T05:29:33.468Z,59.53
2023-02-12T05:32:03.237Z,35.43
2023-02-12T05:34:33.192Z,75.27
2023-02-12T05:37:05.382Z,28.80
2023-02-12T05:39:34.819Z,82.90
2023-02-12T05:42:04.545Z,29.93
2023-02-12T05:44:33.981Z,63.27
2023-02-12T05:47:03.465Z,99.40
2023-02-12T05:49:32.993Z,47.03
2023-02-12T05:52:05.018Z,47.17
2023-02-12T05:54:34.476Z,56.43
2023-02-12T05:57:03.924Z,34.57
2023-02-12T05:59:33.772Z,46.57
2023-02-12T06:02:03.137Z,43.97
2023-02-12T06:04:33.361Z,58.30
2023-02-12T06:07:05.367Z,58.83
2023-02-12T06:09:35.021Z,46.83
2023-02-12T06:12:04.632Z,52.87
2023-02-12T06:14:34.022Z,70.87
2023-02-12T06:17:03.770Z,46.47
2023-02-12T06:19:33.174Z,51.67
2023-02-12T06:22:05.564Z,84.87
2023-02-12T06:24:35.248Z,47.67
2023-02-12T06:27:04.687Z,55.50
2023-02-12T06:29:34.112Z,67.83
2023-02-12T06:32:03.794Z,75.27
2023-02-12T06:34:33.372Z,95.57
2023-02-12T06:37:05.554Z,73.50
2023-02-12T06:39:34.972Z,47.93
2023-02-12T06:42:04.393Z,86.63
2023-02-12T06:44:34.027Z,71.10
2023-02-12T06:47:03.446Z,86.07
2023-02-12T06:49:32.925Z,69.00
2023-02-12T06:52:04.942Z,55.87
2023-02-12T06:54:34.399Z,140.17
2023-02-12T06:57:03.896Z,70.53
2023-02-12T06:59:33.707Z,101.33
2023-02-12T07:02:03.356Z,86.50
2023-02-12T07:04:32.740Z,83.77
2023-02-12T07:07:06.736Z,98.67
2023-02-12T07:09:36.636Z,91.80
2023-02-12T07:12:06.305Z,107.40
2023-02-12T07:14:35.697Z,124.17
2023-02-12T07:17:07.896Z,145.80
2023-02-12T07:19:37.321Z,79.10
2023-02-12T07:22:09.344Z,163.27
2023-02-12T07:24:39.276Z,131.23
2023-02-12T07:27:08.669Z,84.80
2023-02-12T07:29:38.129Z,72.17
2023-02-12T07:32:08.002Z,89.57
2023-02-12T07:34:37.545Z,85.80
2023-02-12T07:37:09.632Z,56.10
2023-02-12T07:39:39.523Z,87.13
2023-02-12T07:42:09.104Z,92.30
2023-02-12T07:44:38.495Z,96.50
2023-02-12T07:47:07.923Z,165.03
2023-02-12T07:49:37.609Z,124.63
2023-02-12T07:52:11.557Z,105.30
2023-02-12T07:54:42.621Z,159.67
2023-02-12T07:57:12.072Z,83.17
2023-02-12T07:59:41.565Z,70.77
2023-02-12T08:02:12.456Z,62.40
2023-02-12T08:04:42.009Z,83.80
2023-02-12T08:07:14.051Z,93.70
2023-02-12T08:09:43.691Z,89.13
2023-02-12T08:12:13.098Z,74.20
2023-02-12T08:14:42.538Z,60.63
2023-02-12T08:17:11.956Z,100.67
2023-02-12T08:19:41.392Z,113.63
2023-02-12T08:22:10.824Z,90.73
2023-02-12T08:24:43.364Z,118.07
2023-02-12T08:27:12.782Z,73.67
2023-02-12T08:29:42.205Z,82.77
2023-02-12T08:32:14.283Z,94.20
2023-02-12T08:34:43.737Z,58.47
2023-02-12T08:37:13.108Z,55.93
2023-02-12T08:39:45.176Z,56.07
2023-02-12T08:42:14.638Z,55.90
2023-02-12T08:44:45.133Z,63.73
2023-02-12T08:47:14.522Z,83.13
2023-02-12T08:49:44.130Z,69.27
2023-02-12T08:52:13.497Z,43.37
2023-02-12T08:54:45.460Z,52.83
2023-02-12T08:57:14.908Z,52.60
2023-02-12T08:59:44.377Z,85.00
2023-02-12T09:02:13.989Z,51.30
2023-02-12T09:04:43.442Z,47.13
2023-02-12T09:07:12.858Z,50.23
2023-02-12T09:09:44.802Z,48.50
2023-02-12T09:12:14.188Z,44.10
2023-02-12T09:14:43.740Z,51.53
2023-02-12T09:17:13.155Z,54.47
2023-02-12T09:19:42.799Z,46.57
2023-02-12T09:22:12.204Z,46.53
2023-02-12T09:24:41.670Z,48.33
2023-02-12T09:27:13.650Z,46.27
2023-02-12T09:29:43.059Z,39.30
2023-02-12T09:32:12.487Z,42.33
2023-02-12T09:34:41.941Z,49.20
2023-02-12T09:37:11.360Z,38.63
2023-02-12T09:39:40.872Z,40.20
2023-02-12T09:42:24.336Z,36.10
2023-02-12T09:44:58.991Z,37.60
2023-02-12T09:47:33.542Z,43.63
2023-02-12T09:50:14.198Z,49.90
2023-02-12T09:52:43.881Z,42.07
2023-02-12T09:55:17.294Z,45.17
2023-02-12T09:57:55.026Z,41.53
2023-02-12T10:00:28.813Z,32.67
2023-02-12T10:02:58.397Z,31.30
2023-02-12T10:05:30.545Z,40.33
2023-02-12T10:08:09.936Z,36.90
2023-02-12T10:10:48.680Z,42.13
2023-02-12T10:13:29.577Z,48.10
2023-02-12T10:16:02.590Z,54.43
2023-02-12T10:18:54.112Z,40.57
2023-02-12T10:21:33.272Z,42.93
2023-02-12T10:24:16.898Z,44.70
2023-02-12T10:26:50.013Z,37.67
2023-02-12T10:29:24.002Z,43.63
2023-02-12T10:34:45.682Z,45.17
2023-02-12T10:37:21.911Z,36.80
2023-02-12T10:39:55.158Z,37.97
2023-02-12T10:42:28.970Z,46.83
2023-02-12T10:45:00.965Z,47.97
2023-02-12T10:47:30.415Z,43.63
2023-02-12T10:50:02.179Z,43.30
2023-02-12T10:52:39.481Z,45.87
2023-02-12T10:55:27.367Z,46.23
2023-02-12T10:57:57.271Z,41.23
2023-02-12T11:00:33.671Z,54.57
2023-02-12T11:03:06.608Z,40.07
2023-02-12T11:05:38.390Z,46.40
2023-02-12T11:08:09.098Z,38.30
2023-02-12T11:10:42.244Z,47.87
2023-02-12T11:13:25.307Z,42.30
2023-02-12T11:15:58.327Z,33.80
2023-02-12T11:18:29.460Z,48.70
2023-02-12T11:21:00.670Z,43.70
2023-02-12T11:23:32.061Z,50.20
2023-02-12T11:26:03.592Z,49.17
2023-02-12T11:28:35.243Z,39.27
2023-02-12T11:31:24.001Z,37.37
2023-02-12T11:34:10.562Z,37.10
2023-02-12T11:36:43.917Z,34.77
2023-02-12T11:39:21.708Z,34.20
2023-02-12T11:41:54.846Z,28.23
2023-02-12T11:44:26.765Z,30.37
2023-02-12T11:47:02.257Z,31.43
2023-02-12T11:49:34.047Z,28.97
2023-02-12T11:52:06.249Z,28.10
2023-02-12T11:54:41.805Z,30.63
2023-02-12T11:57:16.626Z,25.40
2023-02-12T11:59:47.423Z,25.57
2023-02-12T12:02:26.290Z,25.70
2023-02-12T12:04:58.030Z,29.07
2023-02-12T12:07:30.500Z,23.67
2023-02-12T12:10:03.528Z,28.87
2023-02-12T12:12:39.676Z,33.70
2023-02-12T12:15:28.034Z,29.07
2023-02-12T12:18:30.768Z,29.13
2023-02-12T12:21:06.587Z,29.87
2023-02-12T12:23:38.586Z,24.27
2023-02-12T12:26:11.426Z,21.50
2023-02-12T12:28:45.027Z,20.77
2023-02-12T12:31:17.183Z,24.83
2023-02-12T12:33:51.041Z,20.20
2023-02-12T12:36:51.817Z,23.37
2023-02-12T12:39:29.903Z,17.27
2023-02-12T12:42:43.523Z,21.27
2023-02-12T12:45:26.869Z,35.83
2023-02-12T12:48:06.173Z,35.40
2023-02-12T12:50:50.690Z,38.90
2023-02-12T12:53:30.283Z,12.63
2023-02-12T12:56:09.527Z,19.10
2023-02-12T12:58:47.946Z,19.37
2023-02-12T13:01:28.431Z,17.90
2023-02-12T13:04:13.508Z,20.90
2023-02-12T13:06:55.760Z,17.40
2023-02-12T13:09:43.827Z,14.17
2023-02-12T13:12:27.606Z,19.23
2023-02-12T13:15:03.179Z,14.47
2023-02-12T13:17:37.234Z,13.57
2023-02-12T13:20:13.468Z,19.33
2023-02-12T13:22:50.632Z,19.30
2023-02-12T13:25:25.446Z,16.33
2023-02-12T13:27:55.789Z,16.80
2023-02-12T13:30:28.147Z,14.50
2023-02-12T13:33:04.977Z,13.63
2023-02-12T13:35:36.030Z,18.20
2023-02-12T13:38:09.461Z,14.80
2023-02-12T13:40:39.220Z,12.13
2023-02-12T13:43:14.704Z,17.40
2023-02-12T13:45:50.545Z,17.80
2023-02-12T13:48:37.299Z,19.00
2023-02-12T13:51:13.254Z,21.93
2023-02-12T13:53:54.312Z,15.70
2023-02-12T13:56:41.083Z,72.00
2023-02-12T13:59:41.578Z,17.70
2023-02-12T14:02:40.836Z,36.97
2023-02-12T14:05:32.793Z,23.10
2023-02-12T14:08:05.512Z,18.47
2023-02-12T14:10:40.029Z,19.17
2023-02-12T14:13:16.432Z,15.90
2023-02-12T14:15:48.815Z,18.50
2023-02-12T14:18:33.185Z,14.47
2023-02-12T14:21:45.373Z,14.57
2023-02-12T14:24:53.357Z,13.93
2023-02-12T14:27:38.534Z,20.00
2023-02-12T14:30:30.974Z,16.23
2023-02-12T14:33:28.722Z,15.70
2023-02-12T14:36:17.765Z,13.83
2023-02-12T14:39:03.087Z,13.90
2023-02-12T14:41:45.609Z,13.60
2023-02-12T14:44:47.397Z,10.70
2023-02-12T14:47:46.771Z,11.80
2023-02-12T14:50:23.103Z,13.03
2023-02-12T14:52:57.329Z,10.27
2023-02-12T14:55:30.166Z,9.67
2023-02-12T14:58:02.353Z,9.53
2023-02-12T15:00:37.865Z,8.70
2023-02-12T15:03:18.974Z,10.40
2023-02-12T15:05:52.188Z,8.17
2023-02-12T15:08:29.298Z,10.47
2023-02-12T15:11:04.412Z,6.17
2023-02-12T15:13:40.087Z,15.10
2023-02-12T15:16:17.780Z,7.03
2023-02-12T15:18:51.628Z,7.50
2023-02-12T15:21:24.051Z,7.47
2023-02-12T15:24:04.372Z,8.00
2023-02-12T15:26:37.083Z,11.13
2023-02-12T15:29:07.034Z,6.13
2023-02-12T15:31:39.442Z,7.20
2023-02-12T15:34:09.595Z,5.67
2023-02-12T15:36:39.065Z,7.83
2023-02-12T15:39:11.196Z,7.80
2023-02-12T15:41:43.634Z,7.00
2023-02-12T15:44:28.811Z,6.83
2023-02-12T15:47:14.725Z,5.40
2023-02-12T15:49:45.752Z,7.53
2023-02-12T15:52:20.587Z,18.63
2023-02-12T15:54:51.174Z,7.93
2023-02-12T15:57:24.329Z,5.53
2023-02-12T15:59:54.461Z,8.83
2023-02-12T16:02:30.104Z,6.60
2023-02-12T16:04:59.949Z,7.00
2023-02-12T16:07:31.695Z,6.43
2023-02-12T16:10:01.281Z,9.03
2023-02-12T16:12:34.194Z,9.00
2023-02-12T16:15:03.712Z,11.13
2023-02-12T16:17:38.380Z,17.73
2023-02-12T16:20:11.337Z,7.20
2023-02-12T16:22:42.551Z,8.83
2023-02-12T16:25:18.481Z,10.13
2023-02-12T16:27:56.345Z,11.40
2023-02-12T16:30:28.091Z,8.60
2023-02-12T16:33:00.573Z,8.80
2023-02-12T16:35:32.594Z,93.80
2023-02-12T16:38:05.424Z,27.93
2023-02-12T16:40:38.041Z,9.67
2023-02-12T16:43:23.925Z,46.73
2023-02-12T16:45:53.517Z,27.57
2023-02-12T16:48:27.420Z,11.17
2023-02-12T16:50:59.479Z,12.53
2023-02-12T16:53:43.822Z,11.93
2023-02-12T16:56:18.465Z,12.30
2023-02-12T16:58:49.047Z,14.20
2023-02-12T17:01:21.606Z,18.77
2023-02-12T17:03:54.048Z,14.40
2023-02-12T17:06:24.528Z,19.17
2023-02-12T17:08:54.043Z,15.07
2023-02-12T17:11:24.479Z,16.77
2023-02-12T17:13:55.627Z,13.47
2023-02-12T17:16:30.790Z,14.57
2023-02-12T17:19:03.966Z,18.30
2023-02-12T17:21:38.042Z,13.97
2023-02-12T17:24:09.715Z,14.97
2023-02-12T17:26:39.163Z,14.67
2023-02-12T17:29:08.586Z,15.60
2023-02-12T17:31:38.396Z,15.40
2023-02-12T17:34:10.469Z,17.50
2023-02-12T17:36:40.802Z,16.27
2023-02-12T17:39:11.956Z,17.17
2023-02-12T17:41:41.398Z,16.83
2023-02-12T17:44:11.915Z,21.37
2023-02-12T17:46:41.325Z,14.50
2023-02-12T17:49:13.790Z,16.63
2023-02-12T17:51:43.227Z,15.13
2023-02-12T17:54:13.945Z,21.53
2023-02-12T17:56:43.375Z,15.20
2023-02-12T17:59:13.157Z,15.00
2023-02-12T18:01:42.686Z,13.20
2023-02-12T18:04:14.951Z,18.10
2023-02-12T18:06:44.621Z,16.03
2023-02-12T18:09:14.013Z,14.47
2023-02-12T18:11:43.437Z,19.73
2023-02-12T18:14:14.149Z,21.53
2023-02-12T18:16:43.545Z,15.27
2023-02-12T18:19:15.602Z,16.80
2023-02-12T18:21:45.079Z,21.03
2023-02-12T18:24:14.489Z,17.60
2023-02-12T18:26:43.920Z,19.00
2023-02-12T18:29:13.397Z,17.97
2023-02-12T18:31:42.918Z,19.10
2023-02-12T18:34:15.111Z,19.00
2023-02-12T18:36:44.506Z,19.77
2023-02-12T18:39:14.040Z,17.37
2023-02-12T18:41:43.436Z,15.90
2023-02-12T18:44:13.000Z,17.10
2023-02-12T18:46:42.924Z,19.47
2023-02-12T18:49:16.574Z,20.00
2023-02-12T18:51:46.037Z,18.37
2023-02-12T18:54:16.471Z,19.53
2023-02-12T18:56:48.196Z,19.80
2023-02-12T18:59:18.107Z,17.00
2023-02-12T19:01:49.342Z,15.80
2023-02-12T19:04:23.814Z,21.50
2023-02-12T19:06:54.997Z,17.10
2023-02-12T19:09:25.911Z,19.60
2023-02-12T19:11:56.786Z,15.60
2023-02-12T19:14:26.963Z,21.77
2023-02-12T19:16:56.830Z,19.53
2023-02-12T19:19:29.620Z,21.83
2023-02-12T19:21:59.103Z,21.17
2023-02-12T19:24:37.765Z,17.20
2023-02-12T19:27:15.166Z,20.10
2023-02-12T19:29:45.273Z,18.20
2023-02-12T19:32:14.737Z,19.67
2023-02-12T19:34:46.767Z,19.80
2023-02-12T19:37:16.426Z,18.70
2023-02-12T19:39:46.045Z,18.93
2023-02-12T19:42:17.274Z,21.20
2023-02-12T19:44:47.403Z,18.80
2023-02-12T19:47:16.927Z,18.80
2023-02-12T19:49:48.966Z,19.07
2023-02-12T19:52:18.377Z,21.10
2023-02-12T19:54:47.814Z,25.03
2023-02-12T19:57:17.229Z,21.80
2023-02-12T19:59:46.973Z,22.37
2023-02-12T20:02:16.390Z,23.50
2023-02-12T20:04:45.793Z,25.03
2023-02-12T20:07:17.757Z,25.67
2023-02-12T20:09:47.222Z,26.40
2023-02-12T20:12:16.643Z,19.87
2023-02-12T20:14:46.118Z,25.77
2023-02-12T20:17:15.700Z,23.73
2023-02-12T20:19:45.143Z,30.03
2023-02-12T20:22:17.147Z,24.13
2023-02-12T20:24:46.586Z,25.70
2023-02-12T20:27:16.006Z,27.10
2023-02-12T20:29:45.437Z,29.17
2023-02-12T20:32:14.910Z,25.87
2023-02-12T20:34:50.806Z,27.60
2023-02-12T20:37:23.219Z,29.30
2023-02-12T20:39:52.657Z,24.50
2023-02-12T20:42:22.070Z,28.07
2023-02-12T20:44:51.462Z,30.17
2023-02-12T20:47:23.183Z,27.13
2023-02-12T20:49:52.673Z,33.80
2023-02-12T20:52:25.418Z,37.33
2023-02-12T20:54:54.831Z,33.93
2023-02-12T20:57:24.283Z,32.70
2023-02-12T20:59:53.954Z,32.80
2023-02-12T21:02:23.451Z,36.17
2023-02-12T21:04:53.094Z,37.27
2023-02-12T21:07:25.110Z,40.37
2023-02-12T21:09:54.741Z,34.50
2023-02-12T21:12:24.119Z,37.83
2023-02-12T21:14:53.515Z,34.97
2023-02-12T21:17:24.685Z,36.63
2023-02-12T21:19:54.132Z,39.50
2023-02-12T21:22:26.175Z,40.50
2023-02-12T21:24:55.610Z,39.80
2023-02-12T21:27:25.026Z,39.77
2023-02-12T21:29:54.519Z,41.27
2023-02-12T21:32:24.099Z,41.63
2023-02-12T21:34:53.546Z,42.20
2023-02-12T21:37:22.967Z,39.57
2023-02-12T21:39:54.993Z,53.40
2023-02-12T21:42:24.440Z,40.37
2023-02-12T21:44:53.948Z,37.10
2023-02-12T21:47:23.340Z,37.90
2023-02-12T21:49:52.975Z,38.90
2023-02-12T21:52:22.543Z,39.17
2023-02-12T21:54:53.556Z,36.27
2023-02-12T21:57:25.533Z,36.73
2023-02-12T21:59:54.989Z,36.53
2023-02-12T22:02:24.445Z,37.87
2023-02-12T22:04:56.503Z,43.03
2023-02-12T22:07:25.874Z,33.40
2023-02-12T22:09:58.434Z,37.30
2023-02-12T22:12:32.484Z,38.63
2023-02-12T22:15:01.880Z,34.67
2023-02-12T22:17:31.243Z,34.00
2023-02-12T22:20:00.726Z,41.80
2023-02-12T22:22:30.185Z,35.90
2023-02-12T22:24:59.586Z,39.87
2023-02-12T22:27:33.686Z,37.27
2023-02-12T22:30:03.575Z,34.03
2023-02-12T22:32:33.200Z,36.97
2023-02-12T22:35:02.633Z,44.20
2023-02-12T22:37:32.061Z,31.67
2023-02-12T22:40:01.482Z,32.73
2023-02-12T22:42:33.510Z,44.73
2023-02-12T22:45:03.340Z,36.50
2023-02-12T22:47:33.331Z,38.23
2023-02-12T22:50:03.269Z,31.20
2023-02-12T22:52:34.364Z,41.43
2023-02-12T22:55:03.767Z,35.47
2023-02-12T22:57:35.803Z,36.53
2023-02-12T23:00:05.282Z,40.37
2023-02-12T23:02:35.592Z,35.10
2023-02-12T23:05:04.963Z,32.40
2023-02-12T23:07:34.339Z,39.10
2023-02-12T23:10:04.215Z,38.27
2023-02-12T23:12:36.216Z,31.70
2023-02-12T23:15:05.776Z,32.13
2023-02-12T23:17:35.695Z,32.77
2023-02-12T23:20:05.294Z,34.13
2023-02-12T23:22:35.352Z,27.70
2023-02-12T23:25:04.790Z,33.13
2023-02-12T23:27:36.813Z,32.10
2023-02-12T23:30:07.194Z,33.40
2023-02-12T23:32:36.654Z,38.83
2023-02-12T23:35:06.386Z,30.37
2023-02-12T23:37:35.760Z,32.57
2023-02-12T23:40:05.288Z,29.77
2023-02-12T23:42:37.368Z,31.53
2023-02-12T23:45:07.245Z,25.13
2023-02-12T23:47:36.678Z,30.53
2023-02-12T23:50:06.280Z,33.60
2023-02-12T23:52:35.793Z,32.77
2023-02-12T23:55:05.303Z,30.60
2023-02-12T23:57:37.633Z,28.50
